createdAt,value
2019-01-29T00:00:01.572Z,16.70
2019-01-29T00:01:01.523Z,17.10
2019-01-29T00:02:01.469Z,16.00
2019-01-29T00:03:01.423Z,16.00
2019-01-29T00:04:01.368Z,17.90
2019-01-29T00:05:01.314Z,15.90
2019-01-29T00:06:01.264Z,18.00
2019-01-29T00:07:01.214Z,18.50
2019-01-29T00:08:01.162Z,17.10
2019-01-29T00:09:01.119Z,18.40
2019-01-29T00:10:01.069Z,16.60
2019-01-29T00:11:01.018Z,18.10
2019-01-29T00:12:00.965Z,17.10
2019-01-29T00:13:00.912Z,18.00
2019-01-29T00:14:00.861Z,14.30
2019-01-29T00:15:00.824Z,14.20
2019-01-29T00:16:00.787Z,16.40
2019-01-29T00:17:00.714Z,16.10
2019-01-29T00:18:00.660Z,20.60
2019-01-29T00:19:00.608Z,13.40
2019-01-29T00:20:00.557Z,14.80
2019-01-29T00:21:00.509Z,15.10
2019-01-29T00:22:00.457Z,15.30
2019-01-29T00:23:00.412Z,16.40
2019-01-29T00:24:00.359Z,14.10
2019-01-29T00:25:00.369Z,17.10
2019-01-29T00:26:00.253Z,20.20
2019-01-29T00:27:00.216Z,18.40
2019-01-29T00:28:00.164Z,20.60
2019-01-29T00:29:00.102Z,21.50
2019-01-29T00:30:00.088Z,24.90
2019-01-29T00:31:00.003Z,22.80
2019-01-29T00:31:59.953Z,24.20
2019-01-29T00:32:59.906Z,22.20
2019-01-29T00:33:59.887Z,20.90
2019-01-29T00:34:59.828Z,20.30
2019-01-29T00:35:59.768Z,16.80
2019-01-29T00:36:59.703Z,20.50
2019-01-29T00:37:59.649Z,17.70
2019-01-29T00:38:59.598Z,16.30
2019-01-29T00:39:59.547Z,21.50
2019-01-29T00:40:59.498Z,16.30
2019-01-29T00:41:59.449Z,13.70
2019-01-29T00:42:59.398Z,15.00
2019-01-29T00:43:59.344Z,17.40
2019-01-29T00:44:59.294Z,13.40
2019-01-29T00:45:59.242Z,12.20
2019-01-29T00:46:59.194Z,14.40
2019-01-29T00:47:59.141Z,13.10
2019-01-29T00:48:59.095Z,15.50
2019-01-29T00:49:59.051Z,14.80
2019-01-29T00:50:58.991Z,15.40
2019-01-29T00:51:58.939Z,12.40
2019-01-29T00:52:58.910Z,13.60
2019-01-29T00:53:58.847Z,14.70
2019-01-29T00:54:58.814Z,11.90
2019-01-29T00:55:58.741Z,15.60
2019-01-29T00:56:58.693Z,14.00
2019-01-29T00:57:58.640Z,14.40
2019-01-29T00:58:58.593Z,16.20
2019-01-29T00:59:58.542Z,13.10
2019-01-29T01:00:58.487Z,12.50
2019-01-29T01:01:58.442Z,13.60
2019-01-29T01:02:58.384Z,11.90
2019-01-29T01:03:58.342Z,14.10
2019-01-29T01:04:58.284Z,13.30
2019-01-29T01:05:58.242Z,15.80
2019-01-29T01:06:58.184Z,17.70
2019-01-29T01:07:58.135Z,12.00
2019-01-29T01:08:58.085Z,16.60
2019-01-29T01:09:58.033Z,15.20
2019-01-29T01:10:57.982Z,13.10
2019-01-29T01:11:57.934Z,13.80
2019-01-29T01:12:57.884Z,17.30
2019-01-29T01:13:57.833Z,11.50
2019-01-29T01:14:57.784Z,15.80
2019-01-29T01:15:57.732Z,16.70
2019-01-29T01:16:57.679Z,15.60
2019-01-29T01:17:57.635Z,14.80
2019-01-29T01:18:57.582Z,11.70
2019-01-29T01:19:57.527Z,12.70
2019-01-29T01:20:57.486Z,12.00
2019-01-29T01:21:57.430Z,13.70
2019-01-29T01:22:57.377Z,13.60
2019-01-29T01:23:57.334Z,13.30
2019-01-29T01:24:57.278Z,12.70
2019-01-29T01:25:57.226Z,15.20
2019-01-29T01:26:57.174Z,11.80
2019-01-29T01:27:57.128Z,13.90
2019-01-29T01:28:57.078Z,13.80
2019-01-29T01:29:57.023Z,15.50
2019-01-29T01:30:56.977Z,13.30
2019-01-29T01:31:57.343Z,13.90
2019-01-29T01:32:56.874Z,15.30
2019-01-29T01:33:56.829Z,13.80
2019-01-29T01:34:56.776Z,14.50
2019-01-29T01:35:56.725Z,12.30
2019-01-29T01:36:56.672Z,14.50
2019-01-29T01:37:56.622Z,14.30
2019-01-29T01:38:56.570Z,14.90
2019-01-29T01:39:56.524Z,11.20
2019-01-29T01:40:56.468Z,14.50
2019-01-29T01:41:56.421Z,13.20
2019-01-29T01:42:56.384Z,12.20
2019-01-29T01:43:56.316Z,12.50
2019-01-29T01:44:56.273Z,14.40
2019-01-29T01:45:56.218Z,13.70
2019-01-29T01:46:56.165Z,18.50
2019-01-29T01:47:56.114Z,14.50
2019-01-29T01:48:56.068Z,13.60
2019-01-29T01:49:56.018Z,11.50
2019-01-29T01:50:55.962Z,15.70
2019-01-29T01:51:55.914Z,15.50
2019-01-29T01:52:59.399Z,12.40
2019-01-29T01:53:55.831Z,12.80
2019-01-29T01:54:55.759Z,16.80
2019-01-29T01:55:55.712Z,14.50
2019-01-29T01:56:55.658Z,14.00
2019-01-29T01:57:55.610Z,16.60
2019-01-29T01:58:55.560Z,14.00
2019-01-29T01:59:55.506Z,16.80
2019-01-29T02:00:55.459Z,15.40
2019-01-29T02:01:55.405Z,16.50
2019-01-29T02:02:55.362Z,14.70
2019-01-29T02:03:55.310Z,12.20
2019-01-29T02:04:55.258Z,15.50
2019-01-29T02:05:55.204Z,14.20
2019-01-29T02:06:55.159Z,13.30
2019-01-29T02:07:55.104Z,14.10
2019-01-29T02:08:55.052Z,14.40
2019-01-29T02:09:54.999Z,15.10
2019-01-29T02:10:54.971Z,15.20
2019-01-29T02:11:54.899Z,17.00
2019-01-29T02:12:54.867Z,15.30
2019-01-29T02:13:54.805Z,15.50
2019-01-29T02:14:54.746Z,17.10
2019-01-29T02:15:54.695Z,14.10
2019-01-29T02:16:54.653Z,13.90
2019-01-29T02:17:54.598Z,15.70
2019-01-29T02:18:54.548Z,14.30
2019-01-29T02:19:54.534Z,13.50
2019-01-29T02:20:54.446Z,12.20
2019-01-29T02:21:54.391Z,17.10
2019-01-29T02:22:54.341Z,16.70
2019-01-29T02:23:54.291Z,14.80
2019-01-29T02:24:54.250Z,14.40
2019-01-29T02:25:54.189Z,16.90
2019-01-29T02:26:54.140Z,13.00
2019-01-29T02:27:54.101Z,15.80
2019-01-29T02:28:54.036Z,18.10
2019-01-29T02:29:53.987Z,19.90
2019-01-29T02:30:53.934Z,15.20
2019-01-29T02:31:53.890Z,13.30
2019-01-29T02:32:57.687Z,13.20
2019-01-29T02:33:53.785Z,15.10
2019-01-29T02:34:53.734Z,13.50
2019-01-29T02:35:53.684Z,15.80
2019-01-29T02:36:53.636Z,16.50
2019-01-29T02:37:53.586Z,17.10
2019-01-29T02:38:53.537Z,18.60
2019-01-29T02:39:53.488Z,15.50
2019-01-29T02:40:53.429Z,14.60
2019-01-29T02:41:53.392Z,16.60
2019-01-29T02:42:53.328Z,16.30
2019-01-29T02:43:53.276Z,15.80
2019-01-29T02:44:53.231Z,17.90
2019-01-29T02:45:53.172Z,15.60
2019-01-29T02:46:53.125Z,20.50
2019-01-29T02:47:53.069Z,16.70
2019-01-29T02:48:53.022Z,15.10
2019-01-29T02:49:52.979Z,15.00
2019-01-29T02:50:52.931Z,16.60
2019-01-29T02:51:52.870Z,15.60
2019-01-29T02:52:52.819Z,18.10
2019-01-29T02:53:52.767Z,14.20
2019-01-29T02:54:52.717Z,17.30
2019-01-29T02:55:52.666Z,17.40
2019-01-29T02:56:52.614Z,12.20
2019-01-29T02:57:52.565Z,18.90
2019-01-29T02:58:52.515Z,16.60
2019-01-29T02:59:52.460Z,13.10
2019-01-29T03:00:52.410Z,21.30
2019-01-29T03:01:52.359Z,17.60
2019-01-29T03:02:52.315Z,16.80
2019-01-29T03:03:52.267Z,16.60
2019-01-29T03:04:53.532Z,13.50
2019-01-29T03:05:52.162Z,15.10
2019-01-29T03:06:52.108Z,17.80
2019-01-29T03:07:52.060Z,18.30
2019-01-29T03:08:52.006Z,15.80
2019-01-29T03:09:51.958Z,15.10
2019-01-29T03:10:51.911Z,18.60
2019-01-29T03:11:51.879Z,12.90
2019-01-29T03:12:51.814Z,16.70
2019-01-29T03:13:51.761Z,16.90
2019-01-29T03:14:51.703Z,15.50
2019-01-29T03:15:51.649Z,19.00
2019-01-29T03:16:51.600Z,15.00
2019-01-29T03:17:51.547Z,16.20
2019-01-29T03:18:51.503Z,14.50
2019-01-29T03:19:51.448Z,21.80
2019-01-29T03:20:51.401Z,18.30
2019-01-29T03:21:51.353Z,14.60
2019-01-29T03:22:51.300Z,18.80
2019-01-29T03:23:51.240Z,16.70
2019-01-29T03:24:51.192Z,15.90
2019-01-29T03:25:51.141Z,14.10
2019-01-29T03:26:51.091Z,15.60
2019-01-29T03:27:51.041Z,14.80
2019-01-29T03:28:50.990Z,14.40
2019-01-29T03:29:50.937Z,15.70
2019-01-29T03:30:50.907Z,14.80
2019-01-29T03:31:50.866Z,16.40
2019-01-29T03:32:50.798Z,15.30
2019-01-29T03:33:50.742Z,16.80
2019-01-29T03:34:50.754Z,16.10
2019-01-29T03:35:50.634Z,17.20
2019-01-29T03:36:50.582Z,16.50
2019-01-29T03:37:50.534Z,16.10
2019-01-29T03:38:50.485Z,17.00
2019-01-29T03:39:50.428Z,17.30
2019-01-29T03:40:50.379Z,18.30
2019-01-29T03:41:50.337Z,17.50
2019-01-29T03:42:50.280Z,20.30
2019-01-29T03:43:50.230Z,18.60
2019-01-29T03:44:50.177Z,13.40
2019-01-29T03:45:50.129Z,17.00
2019-01-29T03:46:50.075Z,18.20
2019-01-29T03:47:50.035Z,15.50
2019-01-29T03:48:49.973Z,17.00
2019-01-29T03:49:49.922Z,16.90
2019-01-29T03:50:49.876Z,20.30
2019-01-29T03:51:49.825Z,19.80
2019-01-29T03:52:49.776Z,16.50
2019-01-29T03:53:49.726Z,17.90
2019-01-29T03:54:49.672Z,18.70
2019-01-29T03:55:49.627Z,16.70
2019-01-29T03:56:49.576Z,18.00
2019-01-29T03:57:49.517Z,16.20
2019-01-29T03:58:49.476Z,20.10
2019-01-29T03:59:49.415Z,17.40
2019-01-29T04:00:49.364Z,19.50
2019-01-29T04:01:49.372Z,21.90
2019-01-29T04:02:49.273Z,20.90
2019-01-29T04:03:49.223Z,20.30
2019-01-29T04:04:49.164Z,22.00
2019-01-29T04:05:49.113Z,24.70
2019-01-29T04:06:49.063Z,24.60
2019-01-29T04:07:49.024Z,27.90
2019-01-29T04:08:48.960Z,25.10
2019-01-29T04:09:48.920Z,23.60
2019-01-29T04:10:48.924Z,22.60
2019-01-29T04:11:48.817Z,21.30
2019-01-29T04:12:48.779Z,22.40
2019-01-29T04:13:48.709Z,19.00
2019-01-29T04:14:48.657Z,21.20
2019-01-29T04:15:48.604Z,24.30
2019-01-29T04:16:48.557Z,26.10
2019-01-29T04:17:48.506Z,22.20
2019-01-29T04:18:48.452Z,20.40
2019-01-29T04:19:48.405Z,23.70
2019-01-29T04:20:48.430Z,19.40
2019-01-29T04:21:48.301Z,22.40
2019-01-29T04:22:48.263Z,19.10
2019-01-29T04:23:48.197Z,18.90
2019-01-29T04:24:48.149Z,19.50
2019-01-29T04:25:48.096Z,26.70
2019-01-29T04:26:48.045Z,27.30
2019-01-29T04:27:48.001Z,24.00
2019-01-29T04:28:47.948Z,23.50
2019-01-29T04:29:47.901Z,25.20
2019-01-29T04:30:47.844Z,22.20
2019-01-29T04:31:47.799Z,26.00
2019-01-29T04:32:47.753Z,25.60
2019-01-29T04:33:47.693Z,28.40
2019-01-29T04:34:47.639Z,24.40
2019-01-29T04:35:47.591Z,23.60
2019-01-29T04:36:47.538Z,24.80
2019-01-29T04:37:47.491Z,29.70
2019-01-29T04:38:47.437Z,26.20
2019-01-29T04:39:47.389Z,25.20
2019-01-29T04:40:47.342Z,27.20
2019-01-29T04:41:47.285Z,21.90
2019-01-29T04:42:47.237Z,25.40
2019-01-29T04:43:47.182Z,25.20
2019-01-29T04:44:47.132Z,23.30
2019-01-29T04:45:47.081Z,23.00
2019-01-29T04:46:47.033Z,25.80
2019-01-29T04:47:46.988Z,20.70
2019-01-29T04:48:46.930Z,20.20
2019-01-29T04:49:46.888Z,23.80
2019-01-29T04:50:46.847Z,23.00
2019-01-29T04:51:46.779Z,19.10
2019-01-29T04:52:46.728Z,21.70
2019-01-29T04:53:46.673Z,21.20
2019-01-29T04:54:46.622Z,20.20
2019-01-29T04:55:46.572Z,18.80
2019-01-29T04:56:46.529Z,21.60
2019-01-29T04:57:46.470Z,19.70
2019-01-29T04:58:46.418Z,16.80
2019-01-29T04:59:46.369Z,18.80
2019-01-29T05:00:46.321Z,16.10
2019-01-29T05:01:46.271Z,20.30
2019-01-29T05:02:46.221Z,18.30
2019-01-29T05:03:46.165Z,19.90
2019-01-29T05:04:46.119Z,21.00
2019-01-29T05:05:46.063Z,14.50
2019-01-29T05:06:46.012Z,18.30
2019-01-29T05:07:45.963Z,18.60
2019-01-29T05:08:45.914Z,17.00
2019-01-29T05:09:45.872Z,21.50
2019-01-29T05:10:45.809Z,16.20
2019-01-29T05:11:45.760Z,21.50
2019-01-29T05:12:45.712Z,22.20
2019-01-29T05:13:45.662Z,22.00
2019-01-29T05:14:45.607Z,17.50
2019-01-29T05:15:45.554Z,22.00
2019-01-29T05:16:45.504Z,17.10
2019-01-29T05:17:45.454Z,22.20
2019-01-29T05:18:45.417Z,23.80
2019-01-29T05:19:45.353Z,20.90
2019-01-29T05:20:45.305Z,19.20
2019-01-29T05:21:45.249Z,23.20
2019-01-29T05:22:45.201Z,19.80
2019-01-29T05:23:45.152Z,19.20
2019-01-29T05:24:45.098Z,22.90
2019-01-29T05:25:45.047Z,19.30
2019-01-29T05:26:44.996Z,22.80
2019-01-29T05:27:44.946Z,20.40
2019-01-29T05:28:44.906Z,19.70
2019-01-29T05:29:44.849Z,21.30
2019-01-29T05:30:44.825Z,24.50
2019-01-29T05:31:44.743Z,23.50
2019-01-29T05:32:44.690Z,20.00
2019-01-29T05:33:44.638Z,18.70
2019-01-29T05:34:44.588Z,21.70
2019-01-29T05:35:44.542Z,21.70
2019-01-29T05:36:44.487Z,21.50
2019-01-29T05:37:44.437Z,20.50
2019-01-29T05:38:44.387Z,22.10
2019-01-29T05:39:44.337Z,24.70
2019-01-29T05:40:44.285Z,18.80
2019-01-29T05:41:44.241Z,24.80
2019-01-29T05:42:44.183Z,25.00
2019-01-29T05:43:44.133Z,25.60
2019-01-29T05:44:44.087Z,26.40
2019-01-29T05:45:44.033Z,26.50
2019-01-29T05:46:43.984Z,27.50
2019-01-29T05:47:43.930Z,31.00
2019-01-29T05:48:43.877Z,34.40
2019-01-29T05:49:43.840Z,32.40
2019-01-29T05:50:43.777Z,35.70
2019-01-29T05:51:43.726Z,33.50
2019-01-29T05:52:43.673Z,36.00
2019-01-29T05:53:43.633Z,34.40
2019-01-29T05:54:43.575Z,40.10
2019-01-29T05:55:43.522Z,37.40
2019-01-29T05:56:43.470Z,34.80
2019-01-29T05:57:43.419Z,33.60
2019-01-29T05:58:43.370Z,39.00
2019-01-29T05:59:43.320Z,37.80
2019-01-29T06:00:43.268Z,36.00
2019-01-29T06:01:43.216Z,35.40
2019-01-29T06:02:43.167Z,37.10
2019-01-29T06:03:43.113Z,38.60
2019-01-29T06:04:43.062Z,39.20
2019-01-29T06:05:43.016Z,39.00
2019-01-29T06:06:42.962Z,38.00
2019-01-29T06:07:42.929Z,35.10
2019-01-29T06:08:42.899Z,37.40
2019-01-29T06:09:42.808Z,37.00
2019-01-29T06:10:42.757Z,40.20
2019-01-29T06:11:42.717Z,40.20
2019-01-29T06:12:42.656Z,37.20
2019-01-29T06:13:42.609Z,37.40
2019-01-29T06:14:42.558Z,36.30
2019-01-29T06:15:42.506Z,37.70
2019-01-29T06:16:42.458Z,38.70
2019-01-29T06:17:42.401Z,34.40
2019-01-29T06:18:42.355Z,36.00
2019-01-29T06:19:42.325Z,39.70
2019-01-29T06:20:42.254Z,39.80
2019-01-29T06:21:42.213Z,35.30
2019-01-29T06:22:42.152Z,36.50
2019-01-29T06:23:42.100Z,36.10
2019-01-29T06:24:42.053Z,36.70
2019-01-29T06:25:42.005Z,36.10
2019-01-29T06:26:41.946Z,35.30
2019-01-29T06:27:41.893Z,37.20
2019-01-29T06:28:41.843Z,35.60
2019-01-29T06:29:41.795Z,37.10
2019-01-29T06:30:41.742Z,36.60
2019-01-29T06:31:41.689Z,36.70
2019-01-29T06:32:41.639Z,35.60
2019-01-29T06:33:41.591Z,34.20
2019-01-29T06:34:41.542Z,35.70
2019-01-29T06:35:41.485Z,36.90
2019-01-29T06:36:41.446Z,36.00
2019-01-29T06:37:41.390Z,34.50
2019-01-29T06:38:41.333Z,33.80
2019-01-29T06:39:41.283Z,33.40
2019-01-29T06:40:41.232Z,34.60
2019-01-29T06:41:41.182Z,33.30
2019-01-29T06:42:41.133Z,35.70
2019-01-29T06:43:41.081Z,34.00
2019-01-29T06:44:41.030Z,31.20
2019-01-29T06:45:40.982Z,33.70
2019-01-29T06:46:40.929Z,36.50
2019-01-29T06:47:40.878Z,35.20
2019-01-29T06:48:40.827Z,36.20
2019-01-29T06:49:40.777Z,35.50
2019-01-29T06:50:40.724Z,31.40
2019-01-29T06:51:40.673Z,33.00
2019-01-29T06:52:40.623Z,34.50
2019-01-29T06:53:40.575Z,32.90
2019-01-29T06:54:40.527Z,34.70
2019-01-29T06:55:40.475Z,36.50
2019-01-29T06:56:40.420Z,39.80
2019-01-29T06:57:40.372Z,40.50
2019-01-29T06:58:40.324Z,37.90
2019-01-29T06:59:40.272Z,41.00
2019-01-29T07:00:40.217Z,40.40
2019-01-29T07:01:40.165Z,40.60
2019-01-29T07:02:40.117Z,42.80
2019-01-29T07:03:40.065Z,41.00
2019-01-29T07:04:40.014Z,42.40
2019-01-29T07:05:39.966Z,40.00
2019-01-29T07:06:39.924Z,45.20
2019-01-29T07:07:39.886Z,47.70
2019-01-29T07:08:39.810Z,41.90
2019-01-29T07:09:39.761Z,44.70
2019-01-29T07:10:39.711Z,46.80
2019-01-29T07:11:39.661Z,48.60
2019-01-29T07:12:39.611Z,49.40
2019-01-29T07:13:39.571Z,50.00
2019-01-29T07:14:39.506Z,55.20
2019-01-29T07:15:39.460Z,52.90
2019-01-29T07:16:39.410Z,53.30
2019-01-29T07:17:39.354Z,51.80
2019-01-29T07:18:39.302Z,54.60
2019-01-29T07:19:39.254Z,54.90
2019-01-29T07:20:39.198Z,48.60
2019-01-29T07:21:39.152Z,48.90
2019-01-29T07:22:39.101Z,49.10
2019-01-29T07:23:39.048Z,51.00
2019-01-29T07:24:42.967Z,49.50
2019-01-29T07:25:38.950Z,48.30
2019-01-29T07:26:38.933Z,54.30
2019-01-29T07:27:38.857Z,53.20
2019-01-29T07:28:38.809Z,52.30
2019-01-29T07:29:38.746Z,48.90
2019-01-29T07:30:38.695Z,58.70
2019-01-29T07:31:38.640Z,47.90
2019-01-29T07:32:38.589Z,52.50
2019-01-29T07:33:38.542Z,47.60
2019-01-29T07:34:38.489Z,53.80
2019-01-29T07:35:38.436Z,49.40
2019-01-29T07:36:38.386Z,49.50
2019-01-29T07:37:38.336Z,53.80
2019-01-29T07:38:38.289Z,52.80
2019-01-29T07:39:38.233Z,52.80
2019-01-29T07:40:38.198Z,54.30
2019-01-29T07:41:38.132Z,52.60
2019-01-29T07:42:38.081Z,50.10
2019-01-29T07:43:38.033Z,48.90
2019-01-29T07:44:37.982Z,51.40
2019-01-29T07:45:37.932Z,49.40
2019-01-29T07:46:37.883Z,50.20
2019-01-29T07:47:37.831Z,51.00
2019-01-29T07:48:37.777Z,45.80
2019-01-29T07:49:37.728Z,45.00
2019-01-29T07:50:37.677Z,49.50
2019-01-29T07:51:37.626Z,47.80
2019-01-29T07:52:37.582Z,43.30
2019-01-29T07:53:37.535Z,47.90
2019-01-29T07:54:37.475Z,49.70
2019-01-29T07:55:37.422Z,46.90
2019-01-29T07:56:37.373Z,46.20
2019-01-29T07:57:37.322Z,44.30
2019-01-29T07:58:37.272Z,43.10
2019-01-29T07:59:37.223Z,47.60
2019-01-29T08:00:37.172Z,45.10
2019-01-29T08:01:37.119Z,48.60
2019-01-29T08:02:37.074Z,44.40
2019-01-29T08:03:38.121Z,40.60
2019-01-29T08:04:36.967Z,42.90
2019-01-29T08:05:36.916Z,43.00
2019-01-29T08:06:36.871Z,41.00
2019-01-29T08:07:36.813Z,42.90
2019-01-29T08:08:36.763Z,44.50
2019-01-29T08:09:36.720Z,41.50
2019-01-29T08:10:36.664Z,46.30
2019-01-29T08:11:36.614Z,39.70
2019-01-29T08:12:36.561Z,40.90
2019-01-29T08:13:36.513Z,39.20
2019-01-29T08:14:36.465Z,42.20
2019-01-29T08:15:36.409Z,41.00
2019-01-29T08:16:36.357Z,41.90
2019-01-29T08:17:36.311Z,41.60
2019-01-29T08:18:36.262Z,42.70
2019-01-29T08:19:36.206Z,43.70
2019-01-29T08:20:36.159Z,41.30
2019-01-29T08:21:36.108Z,40.20
2019-01-29T08:22:36.057Z,40.90
2019-01-29T08:23:36.005Z,42.70
2019-01-29T08:24:35.957Z,39.20
2019-01-29T08:25:35.905Z,44.00
2019-01-29T08:26:35.857Z,41.30
2019-01-29T08:27:35.823Z,38.30
2019-01-29T08:28:35.774Z,42.70
2019-01-29T08:29:35.710Z,40.20
2019-01-29T08:30:35.693Z,41.00
2019-01-29T08:31:35.682Z,40.50
2019-01-29T08:32:35.631Z,42.00
2019-01-29T08:33:35.613Z,39.90
2019-01-29T08:34:35.451Z,39.10
2019-01-29T08:35:35.402Z,37.00
2019-01-29T08:36:35.353Z,45.70
2019-01-29T08:37:35.301Z,39.20
2019-01-29T08:38:35.250Z,38.20
2019-01-29T08:39:35.200Z,38.00
2019-01-29T08:40:35.150Z,40.30
2019-01-29T08:41:35.099Z,41.50
2019-01-29T08:42:35.049Z,42.50
2019-01-29T08:43:35.002Z,40.50
2019-01-29T08:44:34.958Z,39.60
2019-01-29T08:45:34.912Z,40.30
2019-01-29T08:46:34.850Z,39.40
2019-01-29T08:47:34.795Z,41.80
2019-01-29T08:48:34.755Z,37.60
2019-01-29T08:49:34.697Z,38.60
2019-01-29T08:50:34.649Z,41.30
2019-01-29T08:51:34.596Z,39.30
2019-01-29T08:52:34.549Z,36.50
2019-01-29T08:53:34.495Z,35.90
2019-01-29T08:54:34.444Z,36.40
2019-01-29T08:55:34.394Z,38.10
2019-01-29T08:56:34.349Z,45.00
2019-01-29T08:57:34.295Z,34.40
2019-01-29T08:58:34.246Z,38.50
2019-01-29T08:59:34.197Z,38.70
2019-01-29T09:00:34.147Z,40.20
2019-01-29T09:01:34.094Z,39.40
2019-01-29T09:02:34.045Z,35.90
2019-01-29T09:03:33.998Z,37.00
2019-01-29T09:04:33.952Z,43.50
2019-01-29T09:05:33.894Z,41.50
2019-01-29T09:06:33.845Z,35.70
2019-01-29T09:07:33.793Z,44.70
2019-01-29T09:08:33.745Z,38.70
2019-01-29T09:09:33.697Z,38.60
2019-01-29T09:10:33.645Z,36.80
2019-01-29T09:11:33.592Z,36.50
2019-01-29T09:12:33.541Z,40.00
2019-01-29T09:13:33.493Z,42.00
2019-01-29T09:14:33.446Z,46.50
2019-01-29T09:15:33.392Z,36.90
2019-01-29T09:16:33.344Z,40.90
2019-01-29T09:17:33.294Z,41.40
2019-01-29T09:18:33.245Z,39.70
2019-01-29T09:19:33.202Z,37.50
2019-01-29T09:20:33.140Z,40.80
2019-01-29T09:21:33.093Z,41.60
2019-01-29T09:22:33.044Z,37.60
2019-01-29T09:23:32.994Z,37.70
2019-01-29T09:24:32.941Z,39.20
2019-01-29T09:25:32.912Z,35.20
2019-01-29T09:26:32.844Z,44.20
2019-01-29T09:27:32.793Z,42.80
2019-01-29T09:28:32.744Z,37.90
2019-01-29T09:29:32.691Z,35.80
2019-01-29T09:30:32.643Z,37.40
2019-01-29T09:31:32.605Z,37.20
2019-01-29T09:32:32.549Z,36.70
2019-01-29T09:33:32.494Z,35.50
2019-01-29T09:34:32.445Z,37.70
2019-01-29T09:35:32.396Z,36.90
2019-01-29T09:36:34.016Z,34.20
2019-01-29T09:37:32.293Z,34.80
2019-01-29T09:38:32.242Z,34.20
2019-01-29T09:39:32.192Z,37.30
2019-01-29T09:40:32.142Z,45.70
2019-01-29T09:41:32.091Z,35.80
2019-01-29T09:42:32.042Z,34.40
2019-01-29T09:43:31.991Z,35.80
2019-01-29T09:44:31.942Z,33.90
2019-01-29T09:45:31.897Z,33.80
2019-01-29T09:46:31.844Z,30.10
2019-01-29T09:47:31.793Z,32.40
2019-01-29T09:48:31.742Z,31.90
2019-01-29T09:49:31.695Z,29.80
2019-01-29T09:50:31.642Z,27.80
2019-01-29T09:51:31.593Z,31.00
2019-01-29T09:52:31.543Z,27.90
2019-01-29T09:53:31.495Z,29.10
2019-01-29T09:54:31.450Z,32.40
2019-01-29T09:55:31.396Z,27.80
2019-01-29T09:56:31.344Z,29.10
2019-01-29T09:57:31.295Z,31.10
2019-01-29T09:58:31.244Z,30.40
2019-01-29T09:59:31.194Z,61.70
2019-01-29T10:00:31.147Z,123.60
2019-01-29T10:01:31.095Z,33.30
2019-01-29T10:02:31.050Z,80.10
2019-01-29T10:03:30.999Z,37.50
2019-01-29T10:04:30.950Z,35.50
2019-01-29T10:05:30.900Z,25.10
2019-01-29T10:06:30.849Z,29.90
2019-01-29T10:07:30.798Z,26.70
2019-01-29T10:08:30.756Z,28.10
2019-01-29T10:09:30.700Z,26.70
2019-01-29T10:10:30.655Z,25.20
2019-01-29T10:11:30.602Z,29.90
2019-01-29T10:12:30.549Z,31.00
2019-01-29T10:13:30.505Z,38.90
2019-01-29T10:14:30.455Z,31.70
2019-01-29T10:15:30.402Z,31.60
2019-01-29T10:16:30.351Z,27.70
2019-01-29T10:17:30.301Z,29.90
2019-01-29T10:18:30.251Z,38.40
2019-01-29T10:19:30.202Z,28.10
2019-01-29T10:20:30.159Z,27.30
2019-01-29T10:21:30.110Z,26.40
2019-01-29T10:22:30.055Z,25.10
2019-01-29T10:23:30.004Z,22.20
2019-01-29T10:24:29.957Z,25.20
2019-01-29T10:25:37.412Z,26.60
2019-01-29T10:26:29.872Z,26.50
2019-01-29T10:27:29.810Z,24.00
2019-01-29T10:28:29.758Z,26.10
2019-01-29T10:29:29.708Z,34.30
2019-01-29T10:30:29.664Z,32.80
2019-01-29T10:31:29.613Z,28.90
2019-01-29T10:32:29.564Z,29.10
2019-01-29T10:33:29.510Z,30.50
2019-01-29T10:34:29.460Z,23.40
2019-01-29T10:35:29.420Z,25.20
2019-01-29T10:36:29.362Z,27.20
2019-01-29T10:37:29.316Z,23.50
2019-01-29T10:38:29.263Z,21.80
2019-01-29T10:39:29.215Z,23.20
2019-01-29T10:40:29.164Z,24.80
2019-01-29T10:41:29.122Z,23.10
2019-01-29T10:42:29.068Z,26.80
2019-01-29T10:43:29.019Z,24.00
2019-01-29T10:44:28.979Z,22.70
2019-01-29T10:45:28.922Z,21.00
2019-01-29T10:46:28.875Z,22.30
2019-01-29T10:47:28.823Z,23.60
2019-01-29T10:48:28.768Z,20.20
2019-01-29T10:49:28.722Z,22.60
2019-01-29T10:50:28.671Z,26.10
2019-01-29T10:51:28.622Z,24.40
2019-01-29T10:52:28.573Z,19.50
2019-01-29T10:53:28.524Z,23.10
2019-01-29T10:54:28.476Z,19.60
2019-01-29T10:55:28.441Z,20.90
2019-01-29T10:56:28.375Z,22.10
2019-01-29T10:57:28.328Z,20.30
2019-01-29T10:58:28.279Z,24.50
2019-01-29T10:59:28.229Z,21.00
2019-01-29T11:00:28.192Z,20.00
2019-01-29T11:01:28.139Z,21.60
2019-01-29T11:02:28.084Z,21.40
2019-01-29T11:03:28.033Z,19.80
2019-01-29T11:04:28.000Z,20.80
2019-01-29T11:05:27.938Z,19.30
2019-01-29T11:06:27.911Z,19.60
2019-01-29T11:07:27.836Z,22.20
2019-01-29T11:08:27.786Z,21.40
2019-01-29T11:09:27.740Z,21.80
2019-01-29T11:10:27.688Z,19.40
2019-01-29T11:11:27.639Z,21.30
2019-01-29T11:12:27.589Z,18.20
2019-01-29T11:13:27.540Z,17.50
2019-01-29T11:14:27.494Z,21.10
2019-01-29T11:15:27.444Z,21.90
2019-01-29T11:16:27.393Z,18.30
2019-01-29T11:17:27.344Z,19.90
2019-01-29T11:18:27.296Z,19.80
2019-01-29T11:19:27.248Z,16.80
2019-01-29T11:20:27.201Z,18.80
2019-01-29T11:21:27.149Z,19.60
2019-01-29T11:22:27.117Z,17.80
2019-01-29T11:23:27.050Z,16.20
2019-01-29T11:24:27.009Z,16.40
2019-01-29T11:25:26.960Z,19.00
2019-01-29T11:26:26.916Z,18.30
2019-01-29T11:27:26.867Z,18.10
2019-01-29T11:28:26.819Z,18.20
2019-01-29T11:29:26.756Z,20.50
2019-01-29T11:30:26.707Z,21.60
2019-01-29T11:31:26.661Z,14.80
2019-01-29T11:32:26.609Z,14.30
2019-01-29T11:33:26.563Z,17.00
2019-01-29T11:34:26.510Z,16.50
2019-01-29T11:35:26.463Z,18.10
2019-01-29T11:36:26.412Z,18.10
2019-01-29T11:37:26.366Z,16.60
2019-01-29T11:38:26.316Z,17.90
2019-01-29T11:39:26.265Z,18.10
2019-01-29T11:40:26.221Z,14.70
2019-01-29T11:41:26.170Z,16.50
2019-01-29T11:42:26.123Z,17.00
2019-01-29T11:43:26.070Z,19.00
2019-01-29T11:44:26.022Z,17.10
2019-01-29T11:45:25.975Z,15.40
2019-01-29T11:46:25.927Z,18.20
2019-01-29T11:47:25.886Z,14.30
2019-01-29T11:48:25.829Z,13.90
2019-01-29T11:49:25.779Z,12.90
2019-01-29T11:50:25.735Z,14.30
2019-01-29T11:51:25.681Z,13.50
2019-01-29T11:52:25.633Z,14.20
2019-01-29T11:53:25.584Z,13.70
2019-01-29T11:54:25.539Z,11.90
2019-01-29T11:55:25.489Z,14.30
2019-01-29T11:56:25.442Z,12.00
2019-01-29T11:57:25.392Z,14.00
2019-01-29T11:58:25.341Z,16.50
2019-01-29T11:59:25.291Z,13.70
2019-01-29T12:00:25.245Z,13.80
2019-01-29T12:01:25.195Z,11.90
2019-01-29T12:02:28.486Z,12.80
2019-01-29T12:03:25.096Z,12.20
2019-01-29T12:04:25.053Z,11.80
2019-01-29T12:05:24.999Z,12.10
2019-01-29T12:06:24.951Z,10.20
2019-01-29T12:07:24.903Z,11.70
2019-01-29T12:08:24.853Z,13.10
2019-01-29T12:09:24.815Z,10.40
2019-01-29T12:10:24.768Z,10.60
2019-01-29T12:11:24.707Z,13.20
2019-01-29T12:12:24.661Z,11.30
2019-01-29T12:13:24.622Z,10.00
2019-01-29T12:14:24.560Z,8.50
2019-01-29T12:15:24.508Z,8.60
2019-01-29T12:16:24.459Z,11.80
2019-01-29T12:17:24.415Z,11.00
2019-01-29T12:18:24.363Z,10.00
2019-01-29T12:19:24.312Z,12.20
2019-01-29T12:20:24.268Z,9.90
2019-01-29T12:21:24.219Z,8.70
2019-01-29T12:22:24.174Z,11.80
2019-01-29T12:23:24.136Z,8.90
2019-01-29T12:24:24.068Z,9.80
2019-01-29T12:25:24.020Z,12.50
2019-01-29T12:26:23.974Z,10.10
2019-01-29T12:27:23.930Z,8.00
2019-01-29T12:28:23.895Z,10.30
2019-01-29T12:29:23.828Z,11.00
2019-01-29T12:30:23.774Z,10.10
2019-01-29T12:31:23.760Z,8.20
2019-01-29T12:32:25.990Z,10.70
2019-01-29T12:33:23.630Z,10.50
2019-01-29T12:34:23.582Z,7.80
2019-01-29T12:35:23.886Z,9.30
2019-01-29T12:36:23.489Z,7.00
2019-01-29T12:37:23.434Z,10.60
2019-01-29T12:38:23.385Z,8.00
2019-01-29T12:39:23.336Z,10.30
2019-01-29T12:40:23.296Z,6.70
2019-01-29T12:41:23.247Z,9.60
2019-01-29T12:42:23.194Z,7.40
2019-01-29T12:43:23.143Z,5.20
2019-01-29T12:44:23.093Z,8.80
2019-01-29T12:45:23.047Z,6.80
2019-01-29T12:46:22.998Z,10.10
2019-01-29T12:47:22.951Z,7.10
2019-01-29T12:48:22.906Z,7.70
2019-01-29T12:49:22.851Z,7.70
2019-01-29T12:50:22.810Z,7.50
2019-01-29T12:51:22.754Z,5.70
2019-01-29T12:52:22.706Z,7.70